createdAt,value
2023-11-14T00:00:39.517Z,5.01
2023-11-14T00:03:58.395Z,5.07
2023-11-14T00:07:16.156Z,5.09
2023-11-14T00:10:33.476Z,5.10
2023-11-14T00:13:51.203Z,5.12
2023-11-14T00:17:08.556Z,5.05
2023-11-14T00:20:25.802Z,4.98
2023-11-14T00:23:43.858Z,5.04
2023-11-14T00:27:00.869Z,5.06
2023-11-14T00:30:20.713Z,5.06
2023-11-14T00:33:37.929Z,5.10
2023-11-14T00:36:55.218Z,5.11
2023-11-14T00:40:13.582Z,5.15
2023-11-14T00:43:30.676Z,5.17
2023-11-14T00:46:47.917Z,5.22
2023-11-14T00:50:05.506Z,5.23
2023-11-14T00:53:23.452Z,5.26
2023-11-14T00:56:41.088Z,5.33
2023-11-14T00:59:58.173Z,5.39
2023-11-14T01:03:15.582Z,5.43
2023-11-14T01:06:32.733Z,5.43
2023-11-14T01:09:50.185Z,5.46
2023-11-14T01:13:07.767Z,5.43
2023-11-14T01:16:26.443Z,5.49
2023-11-14T01:19:48.511Z,5.55
2023-11-14T01:23:05.922Z,5.59
2023-11-14T01:26:23.185Z,5.67
2023-11-14T01:29:40.248Z,5.71
2023-11-14T01:32:57.404Z,5.71
2023-11-14T01:36:16.281Z,5.72
2023-11-14T01:39:33.698Z,5.79
2023-11-14T01:42:51.023Z,5.85
2023-11-14T01:46:09.855Z,6.07
2023-11-14T01:49:27.191Z,6.34
2023-11-14T01:52:45.577Z,6.47
2023-11-14T01:56:03.206Z,6.66
2023-11-14T01:59:21.024Z,6.84
2023-11-14T02:02:38.510Z,6.93
2023-11-14T02:05:56.348Z,7.05
2023-11-14T02:09:14.223Z,7.17
2023-11-14T02:12:33.466Z,7.26
2023-11-14T02:15:50.784Z,7.46
2023-11-14T02:19:07.804Z,7.61
2023-11-14T02:22:24.771Z,7.71
2023-11-14T02:25:42.604Z,7.91
2023-11-14T02:29:05.907Z,7.95
2023-11-14T02:32:22.952Z,8.03
2023-11-14T02:35:40.461Z,8.16
2023-11-14T02:38:57.527Z,8.25
2023-11-14T02:42:15.408Z,8.31
2023-11-14T02:45:32.527Z,8.34
2023-11-14T02:48:50.432Z,8.35
2023-11-14T02:52:08.258Z,8.38
2023-11-14T02:55:25.450Z,8.38
2023-11-14T02:58:42.840Z,8.41
2023-11-14T03:02:00.107Z,8.40
2023-11-14T03:05:18.279Z,8.39
2023-11-14T03:08:36.400Z,8.41
2023-11-14T03:11:53.593Z,8.41
2023-11-14T03:15:11.798Z,8.40
2023-11-14T03:18:28.926Z,8.39
2023-11-14T03:21:51.774Z,8.38
2023-11-14T03:25:09.141Z,8.38
2023-11-14T03:28:26.062Z,8.39
2023-11-14T03:31:43.807Z,8.37
2023-11-14T03:35:01.114Z,8.37
2023-11-14T03:38:18.282Z,8.36
2023-11-14T03:41:35.193Z,8.34
2023-11-14T03:44:52.252Z,8.34
2023-11-14T03:48:10.070Z,8.34
2023-11-14T03:51:27.150Z,8.34
2023-11-14T03:54:44.591Z,8.32
2023-11-14T03:58:01.470Z,8.32
2023-11-14T04:01:18.712Z,8.32
2023-11-14T04:04:35.764Z,8.31
2023-11-14T04:07:53.134Z,8.29
2023-11-14T04:11:13.344Z,8.30
2023-11-14T04:14:30.784Z,8.30
2023-11-14T04:17:47.994Z,8.30
2023-11-14T04:21:05.237Z,8.31
2023-11-14T04:24:22.752Z,8.29
2023-11-14T04:27:39.769Z,8.29
2023-11-14T04:30:56.871Z,8.32
2023-11-14T04:34:14.039Z,8.32
2023-11-14T04:37:31.011Z,8.35
2023-11-14T04:40:48.042Z,8.35
2023-11-14T04:44:05.186Z,8.37
2023-11-14T04:47:22.263Z,8.40
2023-11-14T04:50:39.439Z,8.44
2023-11-14T04:53:56.414Z,8.46
2023-11-14T04:57:14.211Z,8.48
2023-11-14T05:00:31.393Z,8.51
2023-11-14T05:03:48.628Z,8.54
2023-11-14T05:07:05.693Z,8.57
2023-11-14T05:10:23.270Z,8.58
2023-11-14T05:13:40.364Z,8.60
2023-11-14T05:16:58.381Z,8.60
2023-11-14T05:20:17.828Z,8.58
2023-11-14T05:23:32.994Z,8.61
2023-11-14T05:26:51.353Z,8.64
2023-11-14T05:30:10.298Z,8.67
2023-11-14T05:33:27.379Z,8.69
2023-11-14T05:36:45.036Z,8.73
2023-11-14T05:40:02.141Z,8.77
2023-11-14T05:43:20.391Z,8.79
2023-11-14T05:46:37.887Z,8.80
2023-11-14T05:49:54.994Z,8.82
2023-11-14T05:53:13.151Z,8.85
2023-11-14T05:56:30.332Z,8.86
2023-11-14T05:59:49.532Z,8.89
2023-11-14T06:03:06.739Z,8.90
2023-11-14T06:06:24.323Z,8.90
2023-11-14T06:09:41.767Z,8.86
2023-11-14T06:13:00.430Z,8.87
2023-11-14T06:16:20.081Z,8.92
2023-11-14T06:19:37.950Z,8.92
2023-11-14T06:22:57.828Z,8.92
2023-11-14T06:26:12.502Z,8.90
2023-11-14T06:29:29.412Z,8.95
2023-11-14T06:32:47.287Z,8.96
2023-11-14T06:36:05.070Z,9.00
2023-11-14T06:39:24.036Z,9.01
2023-11-14T06:42:42.625Z,9.02
2023-11-14T06:46:00.422Z,9.05
2023-11-14T06:49:17.914Z,9.06
2023-11-14T06:52:35.008Z,9.06
2023-11-14T06:55:52.337Z,9.08
2023-11-14T06:59:09.503Z,9.10
2023-11-14T07:02:26.743Z,9.05
2023-11-14T07:05:44.136Z,9.04
2023-11-14T07:09:01.171Z,9.07
2023-11-14T07:12:19.174Z,9.09
2023-11-14T07:15:36.426Z,9.08
2023-11-14T07:18:54.051Z,9.09
2023-11-14T07:22:11.422Z,9.11
2023-11-14T07:25:28.533Z,9.09
2023-11-14T07:28:45.652Z,9.14
2023-11-14T07:32:03.786Z,9.22
2023-11-14T07:35:23.448Z,9.35
2023-11-14T07:38:43.498Z,9.46
2023-11-14T07:42:00.808Z,9.49
2023-11-14T07:45:22.388Z,9.56
2023-11-14T07:48:40.425Z,9.64
2023-11-14T07:51:57.984Z,9.78
2023-11-14T07:55:16.112Z,9.90
2023-11-14T07:58:33.433Z,9.98
2023-11-14T08:01:53.656Z,10.23
2023-11-14T08:05:14.235Z,10.55
2023-11-14T08:08:31.419Z,11.05
2023-11-14T08:11:49.958Z,11.51
2023-11-14T08:15:07.150Z,11.88
2023-11-14T08:18:25.195Z,12.11
2023-11-14T08:21:42.628Z,12.21
2023-11-14T08:24:59.856Z,12.37
2023-11-14T08:28:20.011Z,12.45
2023-11-14T08:31:37.248Z,12.53
2023-11-14T08:34:54.780Z,12.58
2023-11-14T08:38:17.465Z,12.55
2023-11-14T08:41:32.291Z,12.60
2023-11-14T08:44:51.780Z,12.69
2023-11-14T08:48:10.505Z,12.60
2023-11-14T08:51:28.510Z,12.55
2023-11-14T08:54:46.728Z,12.61
2023-11-14T08:58:06.886Z,12.66
2023-11-14T09:01:24.433Z,12.74
2023-11-14T09:04:43.049Z,12.78
2023-11-14T09:08:00.548Z,12.81
2023-11-14T09:11:18.036Z,12.73
2023-11-14T09:14:35.330Z,12.73
2023-11-14T09:17:57.533Z,12.81
2023-11-14T09:21:23.868Z,12.83
2023-11-14T09:24:53.138Z,12.82
2023-11-14T09:28:44.060Z,12.78
2023-11-14T09:32:00.642Z,12.76
2023-11-14T09:35:36.425Z,12.76
2023-11-14T09:39:26.503Z,12.82
2023-11-14T09:42:56.983Z,12.89
2023-11-14T09:46:33.443Z,12.89
2023-11-14T09:49:54.212Z,12.97
2023-11-14T09:53:13.740Z,13.00
2023-11-14T09:56:31.537Z,13.01
2023-11-14T09:59:51.282Z,13.00
2023-11-14T10:03:09.068Z,13.04
2023-11-14T10:06:26.186Z,13.02
2023-11-14T10:09:50.426Z,12.96
2023-11-14T10:13:07.842Z,13.00
2023-11-14T10:16:28.345Z,13.01
2023-11-14T10:19:45.439Z,13.06
2023-11-14T10:23:13.992Z,13.18
2023-11-14T10:26:28.588Z,13.34
2023-11-14T10:29:45.946Z,13.47
2023-11-14T10:33:06.557Z,13.54
2023-11-14T10:36:23.774Z,13.56
2023-11-14T10:39:41.117Z,13.56
2023-11-14T10:43:05.251Z,13.40
2023-11-14T10:46:23.125Z,13.33
2023-11-14T10:49:43.800Z,13.14
2023-11-14T10:53:02.165Z,13.07
2023-11-14T10:56:20.865Z,13.09
2023-11-14T10:59:38.678Z,12.95
2023-11-14T11:02:58.683Z,12.96
2023-11-14T11:06:17.331Z,13.00
2023-11-14T11:09:34.940Z,13.04
2023-11-14T11:12:53.724Z,13.07
2023-11-14T11:16:12.823Z,13.10
2023-11-14T11:19:34.918Z,13.14
2023-11-14T11:23:14.966Z,13.14
2023-11-14T11:26:32.158Z,13.19
2023-11-14T11:30:02.999Z,13.03
2023-11-14T11:33:43.909Z,13.02
2023-11-14T11:37:00.959Z,13.00
2023-11-14T11:40:19.768Z,12.96
2023-11-14T11:43:40.681Z,12.93
2023-11-14T11:46:59.950Z,12.89
2023-11-14T11:50:37.617Z,12.78
2023-11-14T11:53:55.564Z,12.70
2023-11-14T11:57:21.075Z,12.68
2023-11-14T12:00:42.341Z,12.61
2023-11-14T12:04:00.301Z,12.59
2023-11-14T12:07:18.396Z,12.58
2023-11-14T12:10:40.904Z,12.56
2023-11-14T12:13:59.997Z,12.56
2023-11-14T12:17:14.720Z,12.59
2023-11-14T12:20:36.302Z,12.54
2023-11-14T12:23:55.219Z,12.58
2023-11-14T12:27:13.848Z,12.60
2023-11-14T12:30:31.606Z,12.53
2023-11-14T12:33:59.156Z,12.48
2023-11-14T12:37:21.700Z,12.48
2023-11-14T12:40:40.395Z,12.41
2023-11-14T12:44:06.145Z,12.40
2023-11-14T12:47:21.610Z,12.35
2023-11-14T12:50:40.609Z,12.31
2023-11-14T12:53:58.587Z,12.25
2023-11-14T12:57:19.072Z,12.24
2023-11-14T13:00:36.215Z,12.14
2023-11-14T13:03:53.249Z,12.11
2023-11-14T13:07:10.663Z,12.13
2023-11-14T13:10:27.762Z,12.11
2023-11-14T13:13:45.010Z,12.05
2023-11-14T13:17:02.060Z,11.99
2023-11-14T13:20:21.647Z,11.96
2023-11-14T13:23:38.973Z,11.95
2023-11-14T13:26:56.824Z,11.94
2023-11-14T13:30:17.940Z,11.93
2023-11-14T13:33:34.967Z,11.88
2023-11-14T13:36:52.591Z,11.84
2023-11-14T13:40:13.285Z,11.83
2023-11-14T13:43:30.220Z,11.80
2023-11-14T13:46:47.833Z,11.71
2023-11-14T13:50:07.840Z,11.62
2023-11-14T13:53:27.178Z,11.66
2023-11-14T13:56:44.775Z,11.65
2023-11-14T14:00:01.887Z,11.58
2023-11-14T14:03:21.825Z,11.58
2023-11-14T14:06:39.475Z,11.51
2023-11-14T14:09:58.666Z,11.50
2023-11-14T14:13:16.788Z,11.44
2023-11-14T14:16:34.429Z,11.44
2023-11-14T14:19:53.165Z,11.43
2023-11-14T14:23:10.441Z,11.37
2023-11-14T14:26:29.476Z,11.37
2023-11-14T14:29:47.485Z,11.34
2023-11-14T14:33:05.496Z,11.33
2023-11-14T14:36:44.925Z,11.33
2023-11-14T14:40:06.596Z,11.30
2023-11-14T14:43:25.382Z,11.29
2023-11-14T14:46:42.945Z,11.29
2023-11-14T14:50:01.505Z,11.30
2023-11-14T14:53:19.840Z,11.26
2023-11-14T14:56:37.220Z,11.25
2023-11-14T14:59:54.698Z,11.20
2023-11-14T15:03:11.936Z,11.19
2023-11-14T15:06:29.055Z,11.16
2023-11-14T15:09:46.045Z,11.14
2023-11-14T15:13:03.076Z,11.08
2023-11-14T15:16:20.947Z,11.05
2023-11-14T15:19:38.420Z,11.02
2023-11-14T15:22:55.447Z,11.03
2023-11-14T15:26:12.919Z,11.01
2023-11-14T15:29:30.155Z,10.99
2023-11-14T15:32:49.191Z,11.03
2023-11-14T15:36:08.158Z,11.05
2023-11-14T15:39:26.162Z,11.04
2023-11-14T15:42:43.407Z,11.07
2023-11-14T15:46:01.136Z,11.06
2023-11-14T15:49:18.852Z,11.09
2023-11-14T15:52:36.191Z,11.11
2023-11-14T15:55:54.051Z,11.07
2023-11-14T15:59:11.766Z,11.03
2023-11-14T16:02:29.069Z,11.05
2023-11-14T16:05:47.550Z,11.05
2023-11-14T16:09:06.776Z,11.05
2023-11-14T16:12:28.226Z,11.09
2023-11-14T16:15:45.212Z,11.10
2023-11-14T16:19:02.121Z,11.13
2023-11-14T16:22:19.234Z,11.17
2023-11-14T16:25:37.447Z,11.20
2023-11-14T16:28:55.809Z,11.21
2023-11-14T16:32:18.388Z,11.17
2023-11-14T16:35:36.492Z,11.21
2023-11-14T16:38:53.833Z,11.21
2023-11-14T16:42:11.650Z,11.17
2023-11-14T16:45:29.996Z,11.20
2023-11-14T16:48:50.085Z,11.22
2023-11-14T16:52:07.791Z,11.22
2023-11-14T16:55:24.864Z,11.23
2023-11-14T16:58:42.115Z,11.24
2023-11-14T17:01:59.259Z,11.26
2023-11-14T17:05:18.186Z,11.25
2023-11-14T17:08:35.102Z,11.27
2023-11-14T17:11:52.223Z,11.25
2023-11-14T17:15:09.359Z,11.21
2023-11-14T17:18:26.426Z,11.22
2023-11-14T17:21:43.534Z,11.20
2023-11-14T17:25:00.796Z,11.21
2023-11-14T17:28:17.850Z,11.21
2023-11-14T17:31:35.377Z,11.16
2023-11-14T17:34:53.671Z,11.14
2023-11-14T17:38:11.614Z,11.11
2023-11-14T17:41:31.806Z,11.12
2023-11-14T17:44:50.451Z,11.13
2023-11-14T17:48:09.750Z,11.09
2023-11-14T17:51:30.775Z,11.10
2023-11-14T17:54:45.014Z,11.12
2023-11-14T17:58:04.575Z,11.13
2023-11-14T18:01:23.132Z,11.13
2023-11-14T18:04:40.579Z,11.15
2023-11-14T18:08:03.804Z,11.11
2023-11-14T18:11:21.095Z,11.12
2023-11-14T18:14:41.746Z,11.12
2023-11-14T18:18:00.620Z,11.13
2023-11-14T18:21:17.985Z,11.12
2023-11-14T18:24:35.406Z,11.14
2023-11-14T18:27:52.436Z,11.10
2023-11-14T18:31:10.031Z,11.08
2023-11-14T18:34:27.141Z,11.04
2023-11-14T18:37:44.289Z,11.04
2023-11-14T18:41:01.483Z,11.04
2023-11-14T18:44:20.227Z,11.04
2023-11-14T18:47:37.283Z,11.01
2023-11-14T18:50:55.036Z,11.01
2023-11-14T18:54:12.621Z,11.00
2023-11-14T18:57:29.914Z,11.04
2023-11-14T19:00:48.326Z,11.03
2023-11-14T19:04:05.372Z,11.02
2023-11-14T19:07:26.826Z,11.01
2023-11-14T19:10:43.975Z,11.04
2023-11-14T19:14:04.050Z,11.03
2023-11-14T19:17:20.533Z,11.02
2023-11-14T19:20:42.563Z,11.00
2023-11-14T19:23:58.696Z,11.00
2023-11-14T19:27:17.131Z,11.00
2023-11-14T19:30:38.599Z,10.99
2023-11-14T19:33:56.604Z,11.03
2023-11-14T19:37:13.742Z,11.02
2023-11-14T19:40:31.658Z,11.04
2023-11-14T19:43:48.641Z,11.07
2023-11-14T19:47:06.750Z,11.07
2023-11-14T19:50:24.484Z,11.07
2023-11-14T19:53:41.743Z,11.10
2023-11-14T19:56:59.652Z,11.10
2023-11-14T20:00:21.305Z,11.12
2023-11-14T20:03:41.049Z,11.09
2023-11-14T20:06:58.225Z,11.06
2023-11-14T20:10:18.288Z,11.05
2023-11-14T20:13:37.960Z,11.04
2023-11-14T20:16:54.945Z,11.02
2023-11-14T20:20:13.652Z,10.98
2023-11-14T20:23:32.446Z,10.92
2023-11-14T20:26:49.657Z,10.90
2023-11-14T20:30:07.084Z,10.86
2023-11-14T20:33:24.487Z,10.81
2023-11-14T20:36:41.860Z,10.74
2023-11-14T20:39:59.068Z,10.74
2023-11-14T20:43:16.103Z,10.66
2023-11-14T20:46:33.448Z,10.65
2023-11-14T20:49:50.835Z,10.62
2023-11-14T20:53:08.530Z,10.60
2023-11-14T20:56:27.425Z,10.60
2023-11-14T20:59:44.759Z,10.58
2023-11-14T21:03:02.742Z,10.57
2023-11-14T21:06:18.953Z,10.55
2023-11-14T21:09:36.295Z,10.53
2023-11-14T21:12:53.424Z,10.51
2023-11-14T21:16:11.724Z,10.49
2023-11-14T21:19:28.949Z,10.47
2023-11-14T21:22:47.897Z,10.45
2023-11-14T21:26:04.900Z,10.45
2023-11-14T21:29:21.855Z,10.45
2023-11-14T21:32:40.789Z,10.47
2023-11-14T21:35:57.799Z,10.46
2023-11-14T21:39:16.888Z,10.47
2023-11-14T21:42:33.832Z,10.49
2023-11-14T21:45:50.818Z,10.47
2023-11-14T21:49:07.771Z,10.46
2023-11-14T21:52:24.687Z,10.49
2023-11-14T21:55:41.629Z,10.47
2023-11-14T21:59:00.010Z,10.48
2023-11-14T22:02:17.824Z,10.46
2023-11-14T22:05:36.099Z,10.46
2023-11-14T22:08:53.145Z,10.45
2023-11-14T22:12:10.653Z,10.46
2023-11-14T22:15:27.866Z,10.46
2023-11-14T22:18:45.712Z,10.47
2023-11-14T22:22:02.671Z,10.44
2023-11-14T22:25:19.876Z,10.41
2023-11-14T22:28:37.511Z,10.42
2023-11-14T22:31:54.425Z,10.40
2023-11-14T22:35:12.718Z,10.41
2023-11-14T22:38:29.954Z,10.41
2023-11-14T22:41:46.988Z,10.42
2023-11-14T22:45:04.575Z,10.40
2023-11-14T22:48:21.576Z,10.37
2023-11-14T22:51:38.547Z,10.34
2023-11-14T22:54:55.468Z,10.31
2023-11-14T22:58:12.471Z,10.24
2023-11-14T23:01:30.523Z,10.18
2023-11-14T23:04:47.573Z,10.19
2023-11-14T23:08:06.374Z,10.21
2023-11-14T23:11:23.829Z,10.23
2023-11-14T23:14:42.988Z,10.25
2023-11-14T23:18:01.922Z,10.25
2023-11-14T23:21:19.008Z,10.24
2023-11-14T23:24:36.062Z,10.24
2023-11-14T23:27:52.969Z,10.22
2023-11-14T23:31:10.337Z,10.22
2023-11-14T23:34:27.413Z,10.19
2023-11-14T23:37:46.527Z,10.20
2023-11-14T23:41:03.443Z,10.17
2023-11-14T23:44:20.734Z,10.17
2023-11-14T23:47:39.764Z,10.15
2023-11-14T23:50:56.821Z,10.17
2023-11-14T23:54:14.797Z,10.20
2023-11-14T23:57:31.741Z,10.23
